Bringhurst, Indiana
Current Conditions -  °F | °C
As of 9:35 AM on Friday 31 Oct 2014 (Local Time) from KGGP Reporting Station
Light Rain Light Rain  
Wind Chill: 30°   Ceiling: 1200
Heat Index: 37°   Visibility: 7mi
Dew Point: 34°   Wind: 10mph
Humidity: 87%   Direction: 320°NW
Pressure: 30.02"   Gusts: 21mph
Location:  40.53°N, 86.52°W
Report Text: KGGP 311335Z AUTO 32009G18KT 7SM -RA OVC012 03/01 A3002 RMK AO2
Loading
Personal Weather Stations






























Interactive Weather Map
Tropical Storm Tracking
New forecast layout! Learn more

10-Day Weather Forecast

Advertisements
Track Severe Weather on mobile